Disclaimer

Please do not use the information listed here in-flight or in-navigation, as they are not provided to us by the airports but are provided by volunteers, so they might be outdated.

Search


Regions


Airport information page

Radio informations:
Aerodrome flight information system (AFIS) - 129.85 MHz

Airport informations:
Latitude: 60° 57' 28.47" N
Longitude: 014° 30' 40.98" E
Elevation: 634 feet - 193 meters
Operating hours: 24 hour operations
Operating agency: Civil government, landing fees and diplomatic clearance may be required
Timezone: UTC+1(+2DT) - Last Sunday in March to last Sunday in October
Fuel: Jet A1, without icing nhibitor.

100/130 MIL Spec, low lead, aviation gasoline (BLUE)

Runway information:
16/34 - 5951 x 148 feet< - >1814 x 45 meters

Recent METARs:
ESKM 202250Z AUTO 33008KT 9999 OVC013/// 01/M00 Q1035
ESKM 202320Z AUTO 35005KT 9999 OVC014/// 01/M00 Q1035
ESKM 202350Z AUTO 31005KT 9999 OVC015/// 01/M00 Q1035

Airport on the map: